Vance Air Force Base
KEND : now visible

Airfield :











YOU CAN JOIN US ON...

 
LOGIN :

Register | Disclaimer

   EN    FR    IT 

 









Legend :    VFR   Marginal VFR   IFR   Intensive IFR   Very Intensive IFR
Visi :
Ceiling :
>= 8 km
>= 3000ft
5 to 8 km
1000 to 3000 ft
1500m to 5 km
500 to 1000 ft
800 to 1500m
200 to 500 ft
< 800m
< 200 ft
Symbols :   Thunderstorms  Fog  Heavy snow  Heavy precipitations  Wind > 20 kt






- Airport Elevation : 1307 ft


KEND - Vance Air Force Base

CURRENT METAR :
  • 250856Z AUTO 12009KT 10SM CLR M01/M01 A3008 RMK AO2 SLP195 T10121012 $

EXPIRED METARs :
  • 250756Z AUTO 12008KT 10SM CLR M01/M01 A3008 RMK AO2 SLP195 T10081008 $
  • 250656Z AUTO 12010KT 10SM BKN090 M01/M01 A3008 RMK AO2 SLP195 T10071007 $

TAF AMD TAF KEND
Valid from the 24 at 18:00 until the 26 at 00:00 UTC


242345Z 2418/2524 33012G18KT 9999 FEW030 QNH3005INS
BECMG 2423/2424 VRB06KT 9999 FEW250 QNH2996INS
BECMG 2515/2516 14009KT 9999 FEW060 FEW250 QNH2991INS
BECMG 2523/2524 VRB06KT 9999 SCT019 QNH2993INS TX10/2518Z TNM01/2510Z LAST NO AMDS AFT 2418 NEXT 2616



MET'MAP, your aeronautical weather chart ! - Copyright ORBIFLY December 2007 - Disclaimer

ORBIFLY MET'MAP TEAM :

Programming & Development : Alexandra Zaïnal
Concept & original design : Baudouin d'Aumeries
Assistance for programming : Marc-Olivier Méhu
Technical & hardware support : Manuel Goepfert

Contact : metmap@orbifly.com




SOURCES & CREDITS :

   NOAA       Earth
Advisory